createdAt,value
2022-12-16T00:00:29.846Z,1.93
2022-12-16T00:02:59.400Z,2.00
2022-12-16T00:05:25.993Z,2.06
2022-12-16T00:07:52.464Z,2.11
2022-12-16T00:10:22.860Z,2.15
2022-12-16T00:12:49.360Z,2.21
2022-12-16T00:15:18.436Z,2.26
2022-12-16T00:17:44.955Z,2.32
2022-12-16T00:20:11.916Z,2.34
2022-12-16T00:22:38.448Z,2.38
2022-12-16T00:25:05.295Z,2.40
2022-12-16T00:27:31.815Z,2.39
2022-12-16T00:29:58.340Z,2.43
2022-12-16T00:32:24.812Z,2.46
2022-12-16T00:34:51.316Z,2.49
2022-12-16T00:37:18.405Z,2.52
2022-12-16T00:39:44.900Z,2.50
2022-12-16T00:42:11.428Z,2.49
2022-12-16T00:44:37.988Z,2.51
2022-12-16T00:47:06.315Z,2.53
2022-12-16T00:49:32.938Z,2.57
2022-12-16T00:51:59.400Z,2.60
2022-12-16T00:54:25.867Z,2.62
2022-12-16T00:56:52.363Z,2.68
2022-12-16T00:59:18.879Z,2.71
2022-12-16T01:01:45.551Z,2.75
2022-12-16T01:04:12.318Z,2.79
2022-12-16T01:06:38.941Z,2.82
2022-12-16T01:09:05.539Z,2.83
2022-12-16T01:11:32.128Z,2.84
2022-12-16T01:13:59.534Z,2.87
2022-12-16T01:16:26.047Z,2.90
2022-12-16T01:18:53.356Z,2.94
2022-12-16T01:21:22.167Z,2.96
2022-12-16T01:23:48.728Z,2.97
2022-12-16T01:26:17.875Z,2.97
2022-12-16T01:28:45.018Z,2.98
2022-12-16T01:31:12.394Z,2.99
2022-12-16T01:33:39.184Z,3.03
2022-12-16T01:36:08.126Z,3.06
2022-12-16T01:38:35.868Z,3.07
2022-12-16T01:41:02.925Z,3.08
2022-12-16T01:43:33.895Z,3.12
2022-12-16T01:46:07.637Z,3.13
2022-12-16T01:48:59.994Z,3.15
2022-12-16T01:51:38.303Z,3.18
2022-12-16T01:54:22.425Z,3.20
2022-12-16T01:56:54.087Z,3.22
2022-12-16T01:59:25.284Z,3.23
2022-12-16T02:01:52.733Z,3.23
2022-12-16T02:04:19.375Z,3.22
2022-12-16T02:06:46.041Z,3.19
2022-12-16T02:09:15.311Z,3.18
2022-12-16T02:12:00.468Z,3.18
2022-12-16T02:14:58.815Z,3.17
2022-12-16T02:17:41.193Z,3.11
2022-12-16T02:20:48.480Z,3.05
2022-12-16T02:23:47.383Z,3.06
2022-12-16T02:26:34.463Z,3.10
2022-12-16T02:29:37.968Z,3.13
2022-12-16T02:32:23.074Z,3.17
2022-12-16T02:34:59.215Z,3.19
2022-12-16T02:37:44.754Z,3.23
2022-12-16T02:40:21.418Z,3.24
2022-12-16T02:42:54.684Z,3.25
2022-12-16T02:45:27.427Z,3.27
2022-12-16T02:47:54.491Z,3.31
2022-12-16T02:50:34.966Z,3.32
2022-12-16T02:53:02.857Z,3.35
2022-12-16T02:55:57.180Z,3.37
2022-12-16T02:58:46.226Z,3.38
2022-12-16T03:01:25.566Z,3.41
2022-12-16T03:03:58.326Z,3.44
2022-12-16T03:06:27.347Z,3.46
2022-12-16T03:08:59.828Z,3.46
2022-12-16T03:11:29.677Z,3.48
2022-12-16T03:13:57.836Z,3.47
2022-12-16T03:16:29.725Z,3.47
2022-12-16T03:19:01.867Z,3.47
2022-12-16T03:21:34.592Z,3.47
2022-12-16T03:24:03.513Z,3.49
2022-12-16T03:26:46.810Z,3.49
2022-12-16T03:29:27.087Z,3.50
2022-12-16T03:32:02.013Z,3.51
2022-12-16T03:34:37.346Z,3.50
2022-12-16T03:37:07.711Z,3.47
2022-12-16T03:39:40.231Z,3.45
2022-12-16T03:42:07.395Z,3.43
2022-12-16T03:44:35.927Z,3.43
2022-12-16T03:47:02.516Z,3.44
2022-12-16T03:49:29.153Z,3.46
2022-12-16T03:51:56.277Z,3.46
2022-12-16T03:54:23.542Z,3.47
2022-12-16T03:56:50.068Z,3.49
2022-12-16T03:59:16.711Z,3.52
2022-12-16T04:01:43.774Z,3.53
2022-12-16T04:04:10.438Z,3.56
2022-12-16T04:06:36.906Z,3.58
2022-12-16T04:09:03.928Z,3.58
2022-12-16T04:11:48.972Z,3.60
2022-12-16T04:14:34.003Z,3.60
2022-12-16T04:17:19.123Z,3.61
2022-12-16T04:20:04.919Z,3.60
2022-12-16T04:22:59.093Z,3.58
2022-12-16T04:25:32.354Z,3.54
2022-12-16T04:27:59.241Z,3.48
2022-12-16T04:30:27.966Z,3.47
2022-12-16T04:33:19.306Z,3.45
2022-12-16T04:36:04.671Z,3.44
2022-12-16T04:38:50.626Z,3.43
2022-12-16T04:41:36.122Z,3.43
2022-12-16T04:44:21.852Z,3.43
2022-12-16T04:47:07.126Z,3.44
2022-12-16T04:49:52.247Z,3.44
2022-12-16T04:52:37.847Z,3.44
2022-12-16T04:55:24.071Z,3.45
2022-12-16T04:58:13.948Z,3.44
2022-12-16T05:00:59.851Z,3.45
2022-12-16T05:03:45.785Z,3.46
2022-12-16T05:06:31.963Z,3.49
2022-12-16T05:09:17.200Z,3.50
2022-12-16T05:12:02.298Z,3.50
2022-12-16T05:14:47.555Z,3.52
2022-12-16T05:17:33.177Z,3.53
2022-12-16T05:20:18.519Z,3.53
2022-12-16T05:23:03.917Z,3.53
2022-12-16T05:25:48.874Z,3.54
2022-12-16T05:28:44.633Z,3.53
2022-12-16T05:31:29.653Z,3.54
2022-12-16T05:34:14.948Z,3.53
2022-12-16T05:36:59.807Z,3.54
2022-12-16T05:39:44.976Z,3.55
2022-12-16T05:42:30.370Z,3.56
2022-12-16T05:45:15.351Z,3.58
2022-12-16T05:48:00.426Z,3.60
2022-12-16T05:50:45.619Z,3.62
2022-12-16T05:53:30.876Z,3.63
2022-12-16T05:56:16.222Z,3.63
2022-12-16T05:59:01.104Z,3.63
2022-12-16T06:01:46.629Z,3.64
2022-12-16T06:04:31.642Z,3.65
2022-12-16T06:07:16.846Z,3.66
2022-12-16T06:10:01.773Z,3.67
2022-12-16T06:12:46.776Z,3.67
2022-12-16T06:15:31.796Z,3.67
2022-12-16T06:18:16.598Z,3.69
2022-12-16T06:21:02.901Z,3.73
2022-12-16T06:23:47.971Z,3.76
2022-12-16T06:26:32.829Z,3.80
2022-12-16T06:29:17.840Z,3.81
2022-12-16T06:32:03.089Z,3.81
2022-12-16T06:34:48.200Z,3.80
2022-12-16T06:37:33.048Z,3.80
2022-12-16T06:40:17.896Z,3.83
2022-12-16T06:43:02.771Z,3.87
2022-12-16T06:45:47.726Z,3.88
2022-12-16T06:48:33.067Z,3.88
2022-12-16T06:51:18.040Z,3.87
2022-12-16T06:54:03.115Z,3.88
2022-12-16T06:56:48.257Z,3.88
2022-12-16T06:59:33.380Z,3.87
2022-12-16T07:02:18.783Z,3.87
2022-12-16T07:05:03.664Z,3.85
2022-12-16T07:07:48.470Z,3.85
2022-12-16T07:10:33.494Z,3.82
2022-12-16T07:13:18.849Z,3.83
2022-12-16T07:16:04.917Z,3.82
2022-12-16T07:18:50.144Z,3.81
2022-12-16T07:21:35.369Z,3.80
2022-12-16T07:24:20.571Z,3.81
2022-12-16T07:27:25.543Z,3.80
2022-12-16T07:30:10.549Z,3.81
2022-12-16T07:32:55.836Z,3.82
2022-12-16T07:35:40.639Z,3.83
2022-12-16T07:38:25.622Z,3.82
2022-12-16T07:41:10.420Z,3.78
2022-12-16T07:44:00.110Z,3.76
2022-12-16T07:47:04.784Z,3.75
2022-12-16T07:49:49.751Z,3.75
2022-12-16T07:52:34.935Z,3.76
2022-12-16T07:55:19.706Z,3.75
2022-12-16T07:58:09.145Z,3.76
2022-12-16T08:00:54.539Z,3.77
2022-12-16T08:03:41.403Z,3.80
2022-12-16T08:06:26.235Z,3.82
2022-12-16T08:09:11.293Z,3.83
2022-12-16T08:11:56.185Z,3.85
2022-12-16T08:14:41.189Z,3.87
2022-12-16T08:17:25.960Z,3.89
2022-12-16T08:20:11.479Z,3.90
2022-12-16T08:22:59.056Z,3.92
2022-12-16T08:25:44.683Z,3.92
2022-12-16T08:28:29.907Z,3.91
2022-12-16T08:31:14.784Z,3.92
2022-12-16T08:33:59.916Z,3.87
2022-12-16T08:36:45.216Z,3.85
2022-12-16T08:39:30.102Z,3.83
2022-12-16T08:42:15.369Z,3.82
2022-12-16T08:45:00.279Z,3.83
2022-12-16T08:47:45.397Z,3.85
2022-12-16T08:50:30.330Z,3.84
2022-12-16T08:53:15.489Z,3.81
2022-12-16T08:56:01.295Z,3.80
2022-12-16T08:58:46.326Z,3.79
2022-12-16T09:01:32.019Z,3.78
2022-12-16T09:04:17.113Z,3.75
2022-12-16T09:07:02.354Z,3.74
2022-12-16T09:09:47.355Z,3.69
2022-12-16T09:12:32.284Z,3.69
2022-12-16T09:15:17.495Z,3.69
2022-12-16T09:18:02.361Z,3.65
2022-12-16T09:20:47.509Z,3.59
2022-12-16T09:23:32.568Z,3.56
2022-12-16T09:26:18.117Z,3.58
2022-12-16T09:29:03.188Z,3.55
2022-12-16T09:31:52.603Z,3.54
2022-12-16T09:34:37.531Z,3.56
2022-12-16T09:37:22.437Z,3.54
2022-12-16T09:40:07.361Z,3.51
2022-12-16T09:43:12.591Z,3.54
2022-12-16T09:46:29.927Z,3.56
2022-12-16T09:49:18.057Z,3.57
2022-12-16T09:52:06.003Z,3.60
2022-12-16T09:54:55.424Z,3.64
2022-12-16T09:57:42.483Z,3.67
2022-12-16T10:00:42.028Z,3.69
2022-12-16T10:03:51.132Z,3.74
2022-12-16T10:06:55.836Z,3.75
2022-12-16T10:09:47.994Z,3.74
2022-12-16T10:12:40.888Z,3.74
2022-12-16T10:15:51.568Z,3.75
2022-12-16T10:18:48.335Z,3.78
2022-12-16T10:21:40.512Z,3.78
2022-12-16T10:24:37.912Z,3.81
2022-12-16T10:27:31.904Z,3.85
2022-12-16T10:30:17.367Z,3.88
2022-12-16T10:33:06.439Z,3.90
2022-12-16T10:36:00.440Z,3.90
2022-12-16T10:39:03.004Z,3.93
2022-12-16T10:41:52.669Z,3.93
2022-12-16T10:45:07.615Z,3.91
2022-12-16T10:47:52.521Z,3.91
2022-12-16T10:50:38.795Z,3.92
2022-12-16T10:53:32.952Z,4.03
2022-12-16T10:56:37.228Z,4.09
2022-12-16T10:59:24.645Z,4.11
2022-12-16T11:02:24.414Z,4.16
2022-12-16T11:05:09.631Z,4.25
2022-12-16T11:08:10.955Z,4.31
2022-12-16T11:10:59.165Z,4.39
2022-12-16T11:13:49.819Z,4.39
2022-12-16T11:16:47.369Z,4.40
2022-12-16T11:19:42.006Z,4.44
2022-12-16T11:22:57.542Z,4.47
2022-12-16T11:25:42.363Z,4.54
2022-12-16T11:28:33.133Z,4.53
2022-12-16T11:31:23.497Z,4.56
2022-12-16T11:34:10.747Z,4.57
2022-12-16T11:36:57.658Z,4.59
2022-12-16T11:39:45.429Z,4.62
2022-12-16T11:42:42.453Z,4.67
2022-12-16T11:46:03.354Z,4.73
2022-12-16T11:48:59.205Z,4.77
2022-12-16T11:51:47.873Z,4.77
2022-12-16T11:54:46.301Z,4.74
2022-12-16T11:58:01.900Z,4.76
2022-12-16T12:00:48.107Z,4.83
2022-12-16T12:03:42.632Z,4.88
2022-12-16T12:06:49.647Z,4.95
2022-12-16T12:09:40.213Z,5.02
2022-12-16T12:12:47.339Z,5.11
2022-12-16T12:15:58.866Z,5.22
2022-12-16T12:19:04.876Z,5.32
2022-12-16T12:22:15.060Z,5.41
2022-12-16T12:25:21.009Z,5.43
2022-12-16T12:28:22.952Z,5.47
2022-12-16T12:31:24.731Z,5.49
2022-12-16T12:34:26.659Z,5.54
2022-12-16T12:37:42.972Z,5.57
2022-12-16T12:40:43.324Z,5.62
2022-12-16T12:43:43.654Z,5.65
2022-12-16T12:46:45.092Z,5.68
2022-12-16T12:49:41.444Z,5.71
2022-12-16T12:52:29.387Z,5.72
2022-12-16T12:55:19.916Z,5.79
2022-12-16T12:58:08.520Z,5.80
2022-12-16T13:01:01.554Z,5.79
2022-12-16T13:04:27.158Z,5.74
2022-12-16T13:07:12.749Z,5.74
2022-12-16T13:09:58.294Z,5.74
2022-12-16T13:12:48.474Z,5.75
2022-12-16T13:15:56.558Z,5.75
2022-12-16T13:18:49.312Z,5.78
2022-12-16T13:22:04.388Z,5.77
2022-12-16T13:24:58.469Z,5.80
2022-12-16T13:27:46.427Z,5.80
2022-12-16T13:30:31.406Z,5.79
2022-12-16T13:33:22.828Z,5.79
2022-12-16T13:36:16.603Z,5.80
2022-12-16T13:39:43.904Z,5.77
2022-12-16T13:42:59.722Z,5.77
2022-12-16T13:45:56.251Z,5.73
2022-12-16T13:48:52.107Z,5.71
2022-12-16T13:51:55.195Z,5.69
2022-12-16T13:55:04.983Z,5.70
2022-12-16T13:57:56.009Z,5.71
2022-12-16T14:00:43.833Z,5.71
2022-12-16T14:03:37.085Z,5.68
2022-12-16T14:06:28.023Z,5.63
2022-12-16T14:09:13.123Z,5.60
2022-12-16T14:12:19.925Z,5.63
2022-12-16T14:15:10.044Z,5.65
2022-12-16T14:18:13.392Z,5.69
2022-12-16T14:21:07.645Z,5.70
2022-12-16T14:24:10.118Z,5.71
2022-12-16T14:26:56.789Z,5.72
2022-12-16T14:29:45.592Z,5.71
2022-12-16T14:32:45.311Z,5.68
2022-12-16T14:35:33.111Z,5.65
2022-12-16T14:38:33.617Z,5.64
2022-12-16T14:41:18.548Z,5.62
2022-12-16T14:44:03.502Z,5.60
2022-12-16T14:46:50.109Z,5.60
2022-12-16T14:49:44.031Z,5.65
2022-12-16T14:52:39.627Z,5.72
2022-12-16T14:55:47.393Z,5.80
2022-12-16T14:58:41.031Z,5.87
2022-12-16T15:01:37.379Z,5.92
2022-12-16T15:04:29.077Z,5.99
2022-12-16T15:07:14.852Z,6.02
2022-12-16T15:10:05.052Z,6.01
2022-12-16T15:12:56.025Z,6.03
2022-12-16T15:15:53.322Z,6.07
2022-12-16T15:18:47.087Z,6.09
2022-12-16T15:21:31.920Z,6.13
2022-12-16T15:24:16.708Z,6.16
2022-12-16T15:27:01.737Z,6.19
2022-12-16T15:29:58.961Z,6.21
2022-12-16T15:32:44.007Z,6.17
2022-12-16T15:35:29.731Z,6.14
2022-12-16T15:38:14.540Z,6.15
2022-12-16T15:40:59.799Z,6.13
2022-12-16T15:43:53.670Z,6.11
2022-12-16T15:46:43.962Z,6.10
2022-12-16T15:49:48.292Z,6.00
2022-12-16T15:52:48.752Z,5.91
2022-12-16T15:55:49.173Z,5.91
2022-12-16T15:58:47.473Z,5.93
2022-12-16T16:01:35.416Z,5.93
2022-12-16T16:04:21.121Z,5.94
2022-12-16T16:07:08.888Z,5.95
2022-12-16T16:09:56.293Z,5.92
2022-12-16T16:12:42.493Z,5.89
2022-12-16T16:15:30.381Z,5.90
2022-12-16T16:18:22.551Z,5.90
2022-12-16T16:21:08.745Z,5.91
2022-12-16T16:23:54.103Z,5.91
2022-12-16T16:26:41.715Z,5.89
2022-12-16T16:29:29.535Z,5.86
2022-12-16T16:32:14.680Z,5.83
2022-12-16T16:34:59.756Z,5.80
2022-12-16T16:37:44.716Z,5.78
2022-12-16T16:40:51.797Z,5.78
2022-12-16T16:43:37.563Z,5.77
2022-12-16T16:46:33.426Z,5.71
2022-12-16T16:49:18.688Z,5.65
2022-12-16T16:52:03.607Z,5.54
2022-12-16T16:54:49.259Z,5.48
2022-12-16T16:57:34.445Z,5.45
2022-12-16T17:00:19.613Z,5.43
2022-12-16T17:03:04.964Z,5.42
2022-12-16T17:05:50.008Z,5.38
2022-12-16T17:08:36.043Z,5.35
2022-12-16T17:11:20.944Z,5.35
2022-12-16T17:14:06.115Z,5.30
2022-12-16T17:16:51.054Z,5.28
2022-12-16T17:19:36.218Z,5.28
2022-12-16T17:22:21.076Z,5.28
2022-12-16T17:25:06.245Z,5.28
2022-12-16T17:27:50.987Z,5.29
2022-12-16T17:30:43.495Z,5.29
2022-12-16T17:33:33.278Z,5.27
2022-12-16T17:36:18.865Z,5.28
2022-12-16T17:39:04.492Z,5.32
2022-12-16T17:41:55.652Z,5.38
2022-12-16T17:44:40.508Z,5.43
2022-12-16T17:47:25.283Z,5.45
2022-12-16T17:50:10.131Z,5.42
2022-12-16T17:52:54.893Z,5.41
2022-12-16T17:55:39.831Z,5.36
2022-12-16T17:58:24.639Z,5.29
2022-12-16T18:01:09.563Z,5.23
2022-12-16T18:03:54.604Z,5.19
2022-12-16T18:06:39.736Z,5.16
2022-12-16T18:09:24.816Z,5.16
2022-12-16T18:12:09.556Z,5.17
2022-12-16T18:14:54.820Z,5.19
2022-12-16T18:17:39.856Z,5.20
2022-12-16T18:20:25.118Z,5.24
2022-12-16T18:23:12.965Z,5.25
2022-12-16T18:25:58.146Z,5.25
2022-12-16T18:28:43.314Z,5.22
2022-12-16T18:31:28.637Z,5.20
2022-12-16T18:34:13.766Z,5.18
2022-12-16T18:36:59.219Z,5.20
2022-12-16T18:39:44.373Z,5.25
2022-12-16T18:42:29.413Z,5.27
2022-12-16T18:45:14.290Z,5.29
2022-12-16T18:47:59.496Z,5.31
2022-12-16T18:50:44.683Z,5.34
2022-12-16T18:53:30.019Z,5.37
2022-12-16T18:56:26.069Z,5.38
2022-12-16T18:59:11.479Z,5.36
2022-12-16T19:01:57.118Z,5.29
2022-12-16T19:04:42.733Z,5.26
2022-12-16T19:07:30.701Z,5.22
2022-12-16T19:10:17.955Z,5.21
2022-12-16T19:13:02.813Z,5.20
2022-12-16T19:15:47.839Z,5.22
2022-12-16T19:18:33.139Z,5.22
2022-12-16T19:21:18.359Z,5.24
2022-12-16T19:24:03.343Z,5.20
2022-12-16T19:26:48.531Z,5.19
2022-12-16T19:29:33.678Z,5.15
2022-12-16T19:32:18.727Z,5.12
2022-12-16T19:35:03.978Z,5.10
2022-12-16T19:37:49.033Z,5.10
2022-12-16T19:40:33.941Z,5.10
2022-12-16T19:43:18.794Z,5.11
2022-12-16T19:46:10.955Z,5.17
2022-12-16T19:48:56.235Z,5.22
2022-12-16T19:51:41.007Z,5.25
2022-12-16T19:54:25.880Z,5.25
2022-12-16T19:57:10.968Z,5.25
2022-12-16T19:59:55.687Z,5.27
2022-12-16T20:02:41.785Z,5.28
2022-12-16T20:05:26.784Z,5.28
2022-12-16T20:08:11.663Z,5.33
2022-12-16T20:10:56.534Z,5.31
2022-12-16T20:13:41.928Z,5.33
2022-12-16T20:16:29.117Z,5.31
2022-12-16T20:19:14.951Z,5.28
2022-12-16T20:22:06.797Z,5.24
2022-12-16T20:24:53.578Z,5.27
2022-12-16T20:27:41.931Z,5.26
2022-12-16T20:30:27.713Z,5.26
2022-12-16T20:33:12.926Z,5.27
2022-12-16T20:35:57.912Z,5.27
2022-12-16T20:38:43.061Z,5.28
2022-12-16T20:41:28.267Z,5.28
2022-12-16T20:44:13.436Z,5.26
2022-12-16T20:46:58.809Z,5.25
2022-12-16T20:49:43.848Z,5.22
2022-12-16T20:52:29.063Z,5.27
2022-12-16T20:55:14.220Z,5.36
2022-12-16T20:57:59.365Z,5.46
2022-12-16T21:00:44.586Z,5.55
2022-12-16T21:03:29.709Z,5.59
2022-12-16T21:06:14.789Z,5.64
2022-12-16T21:08:59.910Z,5.68
2022-12-16T21:11:44.809Z,5.73
2022-12-16T21:14:29.880Z,5.77
2022-12-16T21:17:14.808Z,5.83
2022-12-16T21:20:00.122Z,5.87
2022-12-16T21:22:45.166Z,5.85
2022-12-16T21:25:30.114Z,5.83
2022-12-16T21:28:16.333Z,5.85
2022-12-16T21:31:01.718Z,5.87
2022-12-16T21:33:47.140Z,5.89
2022-12-16T21:36:32.638Z,5.91
2022-12-16T21:39:17.583Z,5.96
2022-12-16T21:42:02.409Z,5.96
2022-12-16T21:44:47.626Z,5.94
2022-12-16T21:47:32.729Z,5.84
2022-12-16T21:50:17.607Z,5.75
2022-12-16T21:53:05.680Z,5.69
2022-12-16T21:55:51.085Z,5.68
2022-12-16T21:58:37.103Z,5.68
2022-12-16T22:01:22.098Z,5.71
2022-12-16T22:04:07.127Z,5.71
2022-12-16T22:07:03.267Z,5.68
2022-12-16T22:09:48.113Z,5.61
2022-12-16T22:12:32.818Z,5.51
2022-12-16T22:15:17.932Z,5.42
2022-12-16T22:18:03.212Z,5.35
2022-12-16T22:20:48.112Z,5.33
2022-12-16T22:23:34.058Z,5.34
2022-12-16T22:26:19.396Z,5.34
2022-12-16T22:29:05.331Z,5.37
2022-12-16T22:31:50.221Z,5.34
2022-12-16T22:34:35.449Z,5.34
2022-12-16T22:37:20.440Z,5.29
2022-12-16T22:40:05.463Z,5.24
2022-12-16T22:42:50.279Z,5.20
2022-12-16T22:45:35.210Z,5.18
2022-12-16T22:48:20.474Z,5.13
2022-12-16T22:51:05.604Z,5.08
2022-12-16T22:53:50.699Z,5.04
2022-12-16T22:56:37.018Z,5.02
2022-12-16T22:59:22.099Z,5.00
2022-12-16T23:02:07.420Z,5.00
2022-12-16T23:04:52.270Z,4.97
2022-12-16T23:07:37.504Z,4.97
2022-12-16T23:10:23.880Z,4.97
2022-12-16T23:13:09.027Z,4.96
2022-12-16T23:15:56.533Z,4.92
2022-12-16T23:18:59.608Z,4.89
2022-12-16T23:21:44.932Z,4.88
2022-12-16T23:24:30.177Z,4.90
2022-12-16T23:27:16.099Z,4.90
2022-12-16T23:30:01.019Z,4.90
2022-12-16T23:32:46.276Z,4.95
2022-12-16T23:35:31.072Z,4.89
2022-12-16T23:38:20.651Z,4.80
2022-12-16T23:41:05.778Z,4.75
2022-12-16T23:43:51.224Z,4.70
2022-12-16T23:46:37.017Z,4.63
2022-12-16T23:49:22.282Z,4.59
2022-12-16T23:52:07.197Z,4.59
2022-12-16T23:54:52.188Z,4.58
2022-12-16T23:57:37.276Z,4.56
